sensor_id;sensor_type;location;lat;lon;timestamp;P1;durP1;ratioP1;P2;durP2;ratioP2
6667;SDS011;3370;47.712;9.082;2023-07-13T00:01:56;5.60;;;4.83;;
6667;SDS011;3370;47.712;9.082;2023-07-13T00:04:23;4.50;;;4.10;;
6667;SDS011;3370;47.712;9.082;2023-07-13T00:06:52;5.70;;;5.10;;
6667;SDS011;3370;47.712;9.082;2023-07-13T00:09:18;5.30;;;4.50;;
6667;SDS011;3370;47.712;9.082;2023-07-13T00:11:45;5.37;;;4.50;;
6667;SDS011;3370;47.712;9.082;2023-07-13T00:14:14;5.23;;;4.13;;
6667;SDS011;3370;47.712;9.082;2023-07-13T00:16:40;5.57;;;4.43;;
6667;SDS011;3370;47.712;9.082;2023-07-13T00:19:08;7.33;;;4.33;;
6667;SDS011;3370;47.712;9.082;2023-07-13T00:21:38;9.03;;;4.10;;
6667;SDS011;3370;47.712;9.082;2023-07-13T00:24:10;6.70;;;4.80;;
6667;SDS011;3370;47.712;9.082;2023-07-13T00:26:40;5.80;;;4.47;;
6667;SDS011;3370;47.712;9.082;2023-07-13T00:29:09;4.93;;;4.07;;
6667;SDS011;3370;47.712;9.082;2023-07-13T00:31:35;4.47;;;4.07;;
6667;SDS011;3370;47.712;9.082;2023-07-13T00:34:01;6.97;;;4.20;;
6667;SDS011;3370;47.712;9.082;2023-07-13T00:36:29;4.80;;;4.30;;
6667;SDS011;3370;47.712;9.082;2023-07-13T00:38:56;6.23;;;3.70;;
6667;SDS011;3370;47.712;9.082;2023-07-13T00:41:22;8.20;;;4.73;;
6667;SDS011;3370;47.712;9.082;2023-07-13T00:43:47;5.20;;;4.70;;
6667;SDS011;3370;47.712;9.082;2023-07-13T00:48:49;9.23;;;4.83;;
6667;SDS011;3370;47.712;9.082;2023-07-13T00:54:29;4.10;;;3.70;;
6667;SDS011;3370;47.712;9.082;2023-07-13T00:57:01;4.40;;;4.00;;
6667;SDS011;3370;47.712;9.082;2023-07-13T00:59:30;6.33;;;4.87;;
6667;SDS011;3370;47.712;9.082;2023-07-13T01:01:59;7.80;;;4.20;;
6667;SDS011;3370;47.712;9.082;2023-07-13T01:04:26;7.63;;;4.80;;
6667;SDS011;3370;47.712;9.082;2023-07-13T01:06:52;7.53;;;5.07;;
6667;SDS011;3370;47.712;9.082;2023-07-13T01:09:19;5.17;;;4.63;;
6667;SDS011;3370;47.712;9.082;2023-07-13T01:11:45;8.30;;;5.30;;
6667;SDS011;3370;47.712;9.082;2023-07-13T01:14:13;5.43;;;4.60;;
6667;SDS011;3370;47.712;9.082;2023-07-13T01:16:40;6.07;;;5.17;;
6667;SDS011;3370;47.712;9.082;2023-07-13T01:19:32;9.10;;;5.10;;
6667;SDS011;3370;47.712;9.082;2023-07-13T01:22:06;4.93;;;4.47;;
6667;SDS011;3370;47.712;9.082;2023-07-13T01:24:43;6.80;;;4.70;;
6667;SDS011;3370;47.712;9.082;2023-07-13T01:27:12;10.80;;;5.20;;
6667;SDS011;3370;47.712;9.082;2023-07-13T01:29:43;6.10;;;4.30;;
6667;SDS011;3370;47.712;9.082;2023-07-13T01:32:13;7.73;;;5.47;;
6667;SDS011;3370;47.712;9.082;2023-07-13T01:34:47;6.90;;;5.03;;
6667;SDS011;3370;47.712;9.082;2023-07-13T01:37:14;10.13;;;5.13;;
6667;SDS011;3370;47.712;9.082;2023-07-13T01:39:39;8.83;;;5.60;;
6667;SDS011;3370;47.712;9.082;2023-07-13T01:42:06;8.17;;;5.10;;
6667;SDS011;3370;47.712;9.082;2023-07-13T01:44:32;6.70;;;5.27;;
6667;SDS011;3370;47.712;9.082;2023-07-13T01:46:57;10.60;;;5.00;;
6667;SDS011;3370;47.712;9.082;2023-07-13T01:49:23;7.87;;;5.30;;
6667;SDS011;3370;47.712;9.082;2023-07-13T01:51:49;7.23;;;4.73;;
6667;SDS011;3370;47.712;9.082;2023-07-13T01:54:15;5.10;;;4.60;;
6667;SDS011;3370;47.712;9.082;2023-07-13T01:56:41;9.00;;;5.17;;
6667;SDS011;3370;47.712;9.082;2023-07-13T01:59:07;6.57;;;4.93;;
6667;SDS011;3370;47.712;9.082;2023-07-13T02:01:33;5.47;;;4.33;;
6667;SDS011;3370;47.712;9.082;2023-07-13T02:03:59;7.00;;;5.50;;
6667;SDS011;3370;47.712;9.082;2023-07-13T02:06:25;10.30;;;5.03;;
6667;SDS011;3370;47.712;9.082;2023-07-13T02:08:51;7.60;;;5.07;;
6667;SDS011;3370;47.712;9.082;2023-07-13T02:11:17;5.57;;;4.93;;
6667;SDS011;3370;47.712;9.082;2023-07-13T02:13:43;6.93;;;5.20;;
6667;SDS011;3370;47.712;9.082;2023-07-13T02:16:08;7.57;;;4.80;;
6667;SDS011;3370;47.712;9.082;2023-07-13T02:18:34;8.63;;;5.87;;
6667;SDS011;3370;47.712;9.082;2023-07-13T02:21:00;6.63;;;5.30;;
6667;SDS011;3370;47.712;9.082;2023-07-13T02:23:27;6.70;;;4.97;;
6667;SDS011;3370;47.712;9.082;2023-07-13T02:25:56;5.57;;;4.93;;
6667;SDS011;3370;47.712;9.082;2023-07-13T02:28:23;7.50;;;5.70;;
6667;SDS011;3370;47.712;9.082;2023-07-13T02:30:49;8.53;;;4.83;;
6667;SDS011;3370;47.712;9.082;2023-07-13T02:33:15;7.40;;;5.07;;
6667;SDS011;3370;47.712;9.082;2023-07-13T02:35:41;6.00;;;4.60;;
6667;SDS011;3370;47.712;9.082;2023-07-13T02:38:07;5.73;;;5.20;;
6667;SDS011;3370;47.712;9.082;2023-07-13T02:40:34;8.90;;;4.70;;
6667;SDS011;3370;47.712;9.082;2023-07-13T02:43:00;7.27;;;5.30;;
6667;SDS011;3370;47.712;9.082;2023-07-13T02:45:27;7.53;;;5.10;;
6667;SDS011;3370;47.712;9.082;2023-07-13T02:47:53;10.13;;;5.70;;
6667;SDS011;3370;47.712;9.082;2023-07-13T02:50:19;12.70;;;6.07;;
6667;SDS011;3370;47.712;9.082;2023-07-13T02:52:45;11.80;;;6.10;;
6667;SDS011;3370;47.712;9.082;2023-07-13T02:55:11;7.53;;;5.03;;
6667;SDS011;3370;47.712;9.082;2023-07-13T02:57:37;8.87;;;5.20;;
6667;SDS011;3370;47.712;9.082;2023-07-13T03:00:03;10.30;;;6.33;;
6667;SDS011;3370;47.712;9.082;2023-07-13T03:02:33;6.50;;;5.03;;
6667;SDS011;3370;47.712;9.082;2023-07-13T03:04:59;8.60;;;5.90;;
6667;SDS011;3370;47.712;9.082;2023-07-13T03:07:26;6.63;;;5.50;;
6667;SDS011;3370;47.712;9.082;2023-07-13T03:09:55;10.83;;;6.07;;
6667;SDS011;3370;47.712;9.082;2023-07-13T03:12:22;7.80;;;5.13;;
6667;SDS011;3370;47.712;9.082;2023-07-13T03:14:49;9.57;;;5.43;;
6667;SDS011;3370;47.712;9.082;2023-07-13T03:17:15;5.73;;;5.10;;
6667;SDS011;3370;47.712;9.082;2023-07-13T03:19:41;6.63;;;5.20;;
6667;SDS011;3370;47.712;9.082;2023-07-13T03:22:07;7.90;;;6.00;;
6667;SDS011;3370;47.712;9.082;2023-07-13T03:24:33;8.00;;;5.27;;
6667;SDS011;3370;47.712;9.082;2023-07-13T03:27:01;9.73;;;5.50;;
6667;SDS011;3370;47.712;9.082;2023-07-13T03:29:29;9.47;;;5.43;;
6667;SDS011;3370;47.712;9.082;2023-07-13T03:31:55;10.00;;;5.40;;
6667;SDS011;3370;47.712;9.082;2023-07-13T03:34:21;9.50;;;5.93;;
6667;SDS011;3370;47.712;9.082;2023-07-13T03:36:46;8.50;;;6.13;;
6667;SDS011;3370;47.712;9.082;2023-07-13T03:39:12;6.87;;;5.70;;
6667;SDS011;3370;47.712;9.082;2023-07-13T03:41:38;8.07;;;6.40;;
6667;SDS011;3370;47.712;9.082;2023-07-13T03:44:04;11.80;;;6.27;;
6667;SDS011;3370;47.712;9.082;2023-07-13T03:46:30;8.60;;;6.00;;
6667;SDS011;3370;47.712;9.082;2023-07-13T03:48:58;9.73;;;6.37;;
6667;SDS011;3370;47.712;9.082;2023-07-13T03:51:24;9.73;;;6.40;;
6667;SDS011;3370;47.712;9.082;2023-07-13T03:53:50;7.00;;;5.87;;
6667;SDS011;3370;47.712;9.082;2023-07-13T03:56:16;7.00;;;6.30;;
6667;SDS011;3370;47.712;9.082;2023-07-13T03:58:44;16.97;;;6.67;;
6667;SDS011;3370;47.712;9.082;2023-07-13T04:01:12;8.63;;;6.40;;
6667;SDS011;3370;47.712;9.082;2023-07-13T04:03:40;12.77;;;6.43;;
6667;SDS011;3370;47.712;9.082;2023-07-13T04:06:07;8.07;;;6.03;;
6667;SDS011;3370;47.712;9.082;2023-07-13T04:08:40;9.17;;;7.10;;
6667;SDS011;3370;47.712;9.082;2023-07-13T04:11:06;9.70;;;6.53;;
6667;SDS011;3370;47.712;9.082;2023-07-13T04:13:32;12.13;;;6.50;;
6667;SDS011;3370;47.712;9.082;2023-07-13T04:15:58;9.43;;;6.40;;
6667;SDS011;3370;47.712;9.082;2023-07-13T04:18:24;7.47;;;6.43;;
6667;SDS011;3370;47.712;9.082;2023-07-13T04:20:50;9.00;;;6.77;;
6667;SDS011;3370;47.712;9.082;2023-07-13T04:23:16;8.77;;;5.93;;
6667;SDS011;3370;47.712;9.082;2023-07-13T04:25:43;14.77;;;6.90;;
6667;SDS011;3370;47.712;9.082;2023-07-13T04:28:17;11.53;;;6.67;;
6667;SDS011;3370;47.712;9.082;2023-07-13T04:30:48;9.17;;;7.00;;
6667;SDS011;3370;47.712;9.082;2023-07-13T04:33:14;11.03;;;6.47;;
6667;SDS011;3370;47.712;9.082;2023-07-13T04:35:42;6.83;;;6.00;;
6667;SDS011;3370;47.712;9.082;2023-07-13T04:38:11;9.10;;;6.30;;
6667;SDS011;3370;47.712;9.082;2023-07-13T04:40:37;9.20;;;5.60;;
6667;SDS011;3370;47.712;9.082;2023-07-13T04:43:03;11.73;;;6.90;;
6667;SDS011;3370;47.712;9.082;2023-07-13T04:45:29;10.33;;;6.10;;
6667;SDS011;3370;47.712;9.082;2023-07-13T04:47:56;7.57;;;6.20;;
6667;SDS011;3370;47.712;9.082;2023-07-13T04:50:22;10.13;;;6.43;;
6667;SDS011;3370;47.712;9.082;2023-07-13T04:52:48;9.37;;;6.70;;
6667;SDS011;3370;47.712;9.082;2023-07-13T04:55:16;7.40;;;6.20;;
6667;SDS011;3370;47.712;9.082;2023-07-13T04:57:43;7.63;;;5.53;;
6667;SDS011;3370;47.712;9.082;2023-07-13T05:00:09;9.83;;;5.93;;
6667;SDS011;3370;47.712;9.082;2023-07-13T05:02:37;8.20;;;5.47;;
6667;SDS011;3370;47.712;9.082;2023-07-13T05:05:04;9.97;;;6.33;;
6667;SDS011;3370;47.712;9.082;2023-07-13T05:07:31;6.83;;;5.93;;
6667;SDS011;3370;47.712;9.082;2023-07-13T05:09:58;8.77;;;5.80;;
6667;SDS011;3370;47.712;9.082;2023-07-13T05:12:25;10.00;;;6.30;;
6667;SDS011;3370;47.712;9.082;2023-07-13T05:14:52;7.10;;;5.90;;
6667;SDS011;3370;47.712;9.082;2023-07-13T05:17:18;10.20;;;6.30;;
6667;SDS011;3370;47.712;9.082;2023-07-13T05:19:43;8.13;;;5.50;;
6667;SDS011;3370;47.712;9.082;2023-07-13T05:22:09;7.17;;;5.20;;
6667;SDS011;3370;47.712;9.082;2023-07-13T05:24:35;5.50;;;5.00;;
6667;SDS011;3370;47.712;9.082;2023-07-13T05:27:01;7.27;;;5.83;;
6667;SDS011;3370;47.712;9.082;2023-07-13T05:29:27;8.47;;;5.67;;
6667;SDS011;3370;47.712;9.082;2023-07-13T05:31:53;11.77;;;6.30;;
6667;SDS011;3370;47.712;9.082;2023-07-13T05:34:20;6.23;;;5.17;;
6667;SDS011;3370;47.712;9.082;2023-07-13T05:36:45;9.67;;;5.60;;
6667;SDS011;3370;47.712;9.082;2023-07-13T05:39:11;14.30;;;5.63;;
6667;SDS011;3370;47.712;9.082;2023-07-13T05:41:37;7.83;;;5.83;;
6667;SDS011;3370;47.712;9.082;2023-07-13T05:44:03;7.40;;;5.77;;
6667;SDS011;3370;47.712;9.082;2023-07-13T05:46:29;9.27;;;6.17;;
6667;SDS011;3370;47.712;9.082;2023-07-13T05:48:55;10.50;;;5.03;;
6667;SDS011;3370;47.712;9.082;2023-07-13T05:51:21;10.63;;;5.53;;
6667;SDS011;3370;47.712;9.082;2023-07-13T05:53:47;7.97;;;6.17;;
6667;SDS011;3370;47.712;9.082;2023-07-13T05:56:13;10.07;;;6.27;;
6667;SDS011;3370;47.712;9.082;2023-07-13T05:58:38;16.23;;;5.47;;
6667;SDS011;3370;47.712;9.082;2023-07-13T06:01:05;9.70;;;6.03;;
6667;SDS011;3370;47.712;9.082;2023-07-13T06:03:35;7.07;;;5.10;;
6667;SDS011;3370;47.712;9.082;2023-07-13T06:06:03;8.77;;;6.20;;
6667;SDS011;3370;47.712;9.082;2023-07-13T06:08:31;9.80;;;5.63;;
6667;SDS011;3370;47.712;9.082;2023-07-13T06:13:44;8.00;;;5.07;;
6667;SDS011;3370;47.712;9.082;2023-07-13T06:16:10;7.50;;;5.63;;
6667;SDS011;3370;47.712;9.082;2023-07-13T06:18:37;8.40;;;5.90;;
6667;SDS011;3370;47.712;9.082;2023-07-13T06:21:08;8.63;;;4.60;;
6667;SDS011;3370;47.712;9.082;2023-07-13T06:23:36;9.93;;;5.00;;
6667;SDS011;3370;47.712;9.082;2023-07-13T06:26:02;8.43;;;5.23;;
6667;SDS011;3370;47.712;9.082;2023-07-13T06:28:29;8.33;;;4.83;;
6667;SDS011;3370;47.712;9.082;2023-07-13T06:30:56;6.57;;;5.53;;
6667;SDS011;3370;47.712;9.082;2023-07-13T06:33:24;9.07;;;4.37;;
6667;SDS011;3370;47.712;9.082;2023-07-13T06:35:50;5.27;;;4.23;;
6667;SDS011;3370;47.712;9.082;2023-07-13T06:38:16;7.07;;;4.20;;
6667;SDS011;3370;47.712;9.082;2023-07-13T06:40:42;12.53;;;4.70;;
6667;SDS011;3370;47.712;9.082;2023-07-13T06:43:08;4.60;;;3.90;;
6667;SDS011;3370;47.712;9.082;2023-07-13T06:45:40;8.13;;;4.83;;
6667;SDS011;3370;47.712;9.082;2023-07-13T06:48:15;5.60;;;4.30;;
6667;SDS011;3370;47.712;9.082;2023-07-13T06:50:41;6.30;;;4.30;;
6667;SDS011;3370;47.712;9.082;2023-07-13T06:53:08;8.33;;;4.53;;
6667;SDS011;3370;47.712;9.082;2023-07-13T06:55:38;8.20;;;4.10;;
6667;SDS011;3370;47.712;9.082;2023-07-13T06:58:04;4.30;;;3.60;;
6667;SDS011;3370;47.712;9.082;2023-07-13T07:00:31;7.43;;;3.70;;
6667;SDS011;3370;47.712;9.082;2023-07-13T07:02:57;5.10;;;3.97;;
6667;SDS011;3370;47.712;9.082;2023-07-13T07:05:22;5.00;;;4.07;;
6667;SDS011;3370;47.712;9.082;2023-07-13T07:07:51;4.20;;;3.83;;
6667;SDS011;3370;47.712;9.082;2023-07-13T07:10:19;4.80;;;3.93;;
6667;SDS011;3370;47.712;9.082;2023-07-13T07:12:46;10.63;;;3.10;;
6667;SDS011;3370;47.712;9.082;2023-07-13T07:15:12;3.73;;;3.30;;
6667;SDS011;3370;47.712;9.082;2023-07-13T07:17:38;5.87;;;2.90;;
6667;SDS011;3370;47.712;9.082;2023-07-13T07:20:04;7.17;;;3.13;;
6667;SDS011;3370;47.712;9.082;2023-07-13T07:22:31;3.47;;;3.03;;
6667;SDS011;3370;47.712;9.082;2023-07-13T07:24:57;3.83;;;2.80;;
6667;SDS011;3370;47.712;9.082;2023-07-13T07:27:23;5.30;;;3.40;;
6667;SDS011;3370;47.712;9.082;2023-07-13T07:29:49;5.40;;;2.97;;
6667;SDS011;3370;47.712;9.082;2023-07-13T07:32:15;9.47;;;3.80;;
6667;SDS011;3370;47.712;9.082;2023-07-13T07:34:41;7.30;;;3.57;;
6667;SDS011;3370;47.712;9.082;2023-07-13T07:37:09;6.63;;;3.33;;
6667;SDS011;3370;47.712;9.082;2023-07-13T07:39:38;10.57;;;3.23;;
6667;SDS011;3370;47.712;9.082;2023-07-13T07:42:04;4.20;;;3.13;;
6667;SDS011;3370;47.712;9.082;2023-07-13T07:44:31;8.43;;;3.77;;
6667;SDS011;3370;47.712;9.082;2023-07-13T07:46:57;8.23;;;3.90;;
6667;SDS011;3370;47.712;9.082;2023-07-13T07:49:23;11.70;;;3.70;;
6667;SDS011;3370;47.712;9.082;2023-07-13T07:51:49;3.37;;;3.10;;
6667;SDS011;3370;47.712;9.082;2023-07-13T07:54:15;7.73;;;3.03;;
6667;SDS011;3370;47.712;9.082;2023-07-13T07:56:42;3.93;;;2.83;;
6667;SDS011;3370;47.712;9.082;2023-07-13T07:59:08;6.50;;;3.13;;
6667;SDS011;3370;47.712;9.082;2023-07-13T08:01:34;6.83;;;3.50;;
6667;SDS011;3370;47.712;9.082;2023-07-13T08:04:00;7.03;;;3.50;;
6667;SDS011;3370;47.712;9.082;2023-07-13T08:06:26;3.93;;;3.53;;
6667;SDS011;3370;47.712;9.082;2023-07-13T08:08:52;4.57;;;3.23;;
6667;SDS011;3370;47.712;9.082;2023-07-13T08:11:18;7.53;;;3.93;;
6667;SDS011;3370;47.712;9.082;2023-07-13T08:13:46;5.00;;;3.33;;
6667;SDS011;3370;47.712;9.082;2023-07-13T08:16:12;4.77;;;3.10;;
6667;SDS011;3370;47.712;9.082;2023-07-13T08:18:38;7.93;;;3.00;;
6667;SDS011;3370;47.712;9.082;2023-07-13T08:21:04;5.83;;;3.13;;
6667;SDS011;3370;47.712;9.082;2023-07-13T08:23:32;6.77;;;3.37;;
6667;SDS011;3370;47.712;9.082;2023-07-13T08:25:58;3.30;;;3.00;;
6667;SDS011;3370;47.712;9.082;2023-07-13T08:28:26;11.20;;;3.23;;
6667;SDS011;3370;47.712;9.082;2023-07-13T08:30:53;3.73;;;3.07;;
6667;SDS011;3370;47.712;9.082;2023-07-13T08:33:19;3.20;;;2.90;;
6667;SDS011;3370;47.712;9.082;2023-07-13T08:35:49;7.43;;;2.60;;
6667;SDS011;3370;47.712;9.082;2023-07-13T08:38:15;3.90;;;3.07;;
6667;SDS011;3370;47.712;9.082;2023-07-13T08:40:42;4.57;;;2.83;;
6667;SDS011;3370;47.712;9.082;2023-07-13T08:43:13;3.43;;;2.53;;
6667;SDS011;3370;47.712;9.082;2023-07-13T08:45:47;8.67;;;3.13;;
6667;SDS011;3370;47.712;9.082;2023-07-13T08:48:47;5.50;;;2.63;;
6667;SDS011;3370;47.712;9.082;2023-07-13T08:51:26;3.90;;;2.67;;
6667;SDS011;3370;47.712;9.082;2023-07-13T08:53:58;3.90;;;2.10;;
6667;SDS011;3370;47.712;9.082;2023-07-13T08:56:28;4.90;;;2.73;;
6667;SDS011;3370;47.712;9.082;2023-07-13T08:59:18;8.10;;;3.40;;
6667;SDS011;3370;47.712;9.082;2023-07-13T09:04:42;8.03;;;3.60;;
6667;SDS011;3370;47.712;9.082;2023-07-13T09:07:23;7.70;;;3.20;;
6667;SDS011;3370;47.712;9.082;2023-07-13T09:10:21;7.10;;;2.70;;
6667;SDS011;3370;47.712;9.082;2023-07-13T09:13:00;6.90;;;2.80;;
6667;SDS011;3370;47.712;9.082;2023-07-13T09:16:02;4.87;;;2.53;;
6667;SDS011;3370;47.712;9.082;2023-07-13T09:18:33;2.40;;;2.17;;
6667;SDS011;3370;47.712;9.082;2023-07-13T09:23:47;6.33;;;3.20;;
6667;SDS011;3370;47.712;9.082;2023-07-13T09:26:16;4.30;;;2.43;;
6667;SDS011;3370;47.712;9.082;2023-07-13T09:28:59;5.00;;;2.73;;
6667;SDS011;3370;47.712;9.082;2023-07-13T09:31:45;5.20;;;2.73;;
6667;SDS011;3370;47.712;9.082;2023-07-13T09:34:17;5.37;;;2.30;;
6667;SDS011;3370;47.712;9.082;2023-07-13T09:36:42;5.13;;;2.43;;
6667;SDS011;3370;47.712;9.082;2023-07-13T09:42:14;12.00;;;2.57;;
6667;SDS011;3370;47.712;9.082;2023-07-13T09:44:55;8.13;;;2.53;;
6667;SDS011;3370;47.712;9.082;2023-07-13T09:47:25;3.10;;;2.80;;
6667;SDS011;3370;47.712;9.082;2023-07-13T09:50:09;5.80;;;2.90;;
6667;SDS011;3370;47.712;9.082;2023-07-13T09:55:32;10.77;;;2.73;;
6667;SDS011;3370;47.712;9.082;2023-07-13T09:58:03;4.00;;;2.90;;
6667;SDS011;3370;47.712;9.082;2023-07-13T10:00:56;2.50;;;2.33;;
6667;SDS011;3370;47.712;9.082;2023-07-13T10:03:30;6.20;;;3.17;;
6667;SDS011;3370;47.712;9.082;2023-07-13T10:06:16;5.47;;;2.83;;
6667;SDS011;3370;47.712;9.082;2023-07-13T10:08:47;6.50;;;2.33;;
6667;SDS011;3370;47.712;9.082;2023-07-13T10:11:20;3.47;;;2.53;;
6667;SDS011;3370;47.712;9.082;2023-07-13T10:16:29;2.50;;;2.30;;
6667;SDS011;3370;47.712;9.082;2023-07-13T10:19:04;2.73;;;2.53;;
6667;SDS011;3370;47.712;9.082;2023-07-13T10:22:00;7.20;;;2.40;;
6667;SDS011;3370;47.712;9.082;2023-07-13T10:24:38;2.60;;;2.00;;
6667;SDS011;3370;47.712;9.082;2023-07-13T10:27:08;3.13;;;2.17;;
6667;SDS011;3370;47.712;9.082;2023-07-13T10:29:46;2.50;;;2.23;;
6667;SDS011;3370;47.712;9.082;2023-07-13T10:32:13;4.60;;;2.30;;
6667;SDS011;3370;47.712;9.082;2023-07-13T10:34:40;5.10;;;2.67;;
6667;SDS011;3370;47.712;9.082;2023-07-13T10:37:28;4.33;;;2.47;;
6667;SDS011;3370;47.712;9.082;2023-07-13T10:40:04;3.20;;;2.10;;
6667;SDS011;3370;47.712;9.082;2023-07-13T10:42:38;6.07;;;2.70;;
6667;SDS011;3370;47.712;9.082;2023-07-13T10:45:16;5.00;;;2.20;;
6667;SDS011;3370;47.712;9.082;2023-07-13T10:47:45;5.23;;;2.37;;
6667;SDS011;3370;47.712;9.082;2023-07-13T10:50:15;3.93;;;2.70;;
6667;SDS011;3370;47.712;9.082;2023-07-13T10:52:46;2.40;;;2.20;;
6667;SDS011;3370;47.712;9.082;2023-07-13T10:55:38;6.37;;;2.23;;
6667;SDS011;3370;47.712;9.082;2023-07-13T10:58:23;8.60;;;2.50;;
6667;SDS011;3370;47.712;9.082;2023-07-13T11:01:08;2.23;;;2.10;;
6667;SDS011;3370;47.712;9.082;2023-07-13T11:06:16;2.70;;;2.20;;
6667;SDS011;3370;47.712;9.082;2023-07-13T11:08:59;4.00;;;2.23;;
6667;SDS011;3370;47.712;9.082;2023-07-13T11:12:01;3.37;;;2.20;;
6667;SDS011;3370;47.712;9.082;2023-07-13T11:17:24;4.03;;;2.47;;
6667;SDS011;3370;47.712;9.082;2023-07-13T11:20:36;2.27;;;2.10;;
6667;SDS011;3370;47.712;9.082;2023-07-13T11:23:09;3.67;;;2.60;;
6667;SDS011;3370;47.712;9.082;2023-07-13T11:25:52;2.97;;;1.80;;
6667;SDS011;3370;47.712;9.082;2023-07-13T11:28:21;2.13;;;1.87;;
6667;SDS011;3370;47.712;9.082;2023-07-13T11:33:22;4.20;;;2.07;;
6667;SDS011;3370;47.712;9.082;2023-07-13T11:41:14;3.37;;;2.63;;
6667;SDS011;3370;47.712;9.082;2023-07-13T11:43:42;3.27;;;2.10;;
6667;SDS011;3370;47.712;9.082;2023-07-13T11:46:13;8.53;;;2.57;;
6667;SDS011;3370;47.712;9.082;2023-07-13T11:48:50;4.13;;;2.23;;
6667;SDS011;3370;47.712;9.082;2023-07-13T11:51:20;2.37;;;2.17;;
6667;SDS011;3370;47.712;9.082;2023-07-13T11:53:48;5.37;;;2.77;;
6667;SDS011;3370;47.712;9.082;2023-07-13T11:56:17;3.83;;;2.53;;
6667;SDS011;3370;47.712;9.082;2023-07-13T11:58:43;6.10;;;2.80;;
6667;SDS011;3370;47.712;9.082;2023-07-13T12:01:15;6.20;;;2.43;;
6667;SDS011;3370;47.712;9.082;2023-07-13T12:03:57;6.37;;;2.50;;
6667;SDS011;3370;47.712;9.082;2023-07-13T12:06:33;9.80;;;2.40;;
6667;SDS011;3370;47.712;9.082;2023-07-13T12:09:09;4.57;;;2.60;;
6667;SDS011;3370;47.712;9.082;2023-07-13T12:11:39;2.00;;;1.90;;
6667;SDS011;3370;47.712;9.082;2023-07-13T12:14:17;2.67;;;2.43;;
6667;SDS011;3370;47.712;9.082;2023-07-13T12:16:44;4.20;;;2.13;;
6667;SDS011;3370;47.712;9.082;2023-07-13T12:19:23;4.50;;;2.30;;
6667;SDS011;3370;47.712;9.082;2023-07-13T12:21:53;3.80;;;2.60;;
6667;SDS011;3370;47.712;9.082;2023-07-13T12:24:22;8.10;;;2.40;;
6667;SDS011;3370;47.712;9.082;2023-07-13T12:27:02;2.83;;;2.50;;
6667;SDS011;3370;47.712;9.082;2023-07-13T12:29:30;4.67;;;2.80;;
6667;SDS011;3370;47.712;9.082;2023-07-13T12:31:58;2.83;;;2.43;;
6667;SDS011;3370;47.712;9.082;2023-07-13T12:34:26;4.10;;;2.47;;
6667;SDS011;3370;47.712;9.082;2023-07-13T12:36:56;4.17;;;2.40;;
6667;SDS011;3370;47.712;9.082;2023-07-13T12:39:46;3.10;;;2.27;;
6667;SDS011;3370;47.712;9.082;2023-07-13T12:45:36;7.10;;;2.47;;
6667;SDS011;3370;47.712;9.082;2023-07-13T12:48:13;2.43;;;2.10;;
6667;SDS011;3370;47.712;9.082;2023-07-13T12:50:42;6.53;;;2.30;;
6667;SDS011;3370;47.712;9.082;2023-07-13T12:53:14;4.67;;;2.27;;
6667;SDS011;3370;47.712;9.082;2023-07-13T12:55:51;3.10;;;2.30;;
6667;SDS011;3370;47.712;9.082;2023-07-13T13:01:11;5.13;;;2.60;;
6667;SDS011;3370;47.712;9.082;2023-07-13T13:03:39;2.70;;;2.50;;
6667;SDS011;3370;47.712;9.082;2023-07-13T13:08:55;8.33;;;2.47;;
6667;SDS011;3370;47.712;9.082;2023-07-13T13:11:26;3.23;;;2.27;;
6667;SDS011;3370;47.712;9.082;2023-07-13T13:13:57;2.70;;;2.23;;
6667;SDS011;3370;47.712;9.082;2023-07-13T13:16:26;7.97;;;2.80;;
6667;SDS011;3370;47.712;9.082;2023-07-13T13:19:15;5.63;;;2.60;;
6667;SDS011;3370;47.712;9.082;2023-07-13T13:21:46;5.47;;;2.80;;
6667;SDS011;3370;47.712;9.082;2023-07-13T13:24:13;4.33;;;2.87;;
6667;SDS011;3370;47.712;9.082;2023-07-13T13:26:42;4.07;;;3.00;;
6667;SDS011;3370;47.712;9.082;2023-07-13T13:29:19;2.60;;;2.40;;
6667;SDS011;3370;47.712;9.082;2023-07-13T13:31:49;10.67;;;2.67;;
6667;SDS011;3370;47.712;9.082;2023-07-13T13:34:16;2.90;;;2.03;;
6667;SDS011;3370;47.712;9.082;2023-07-13T13:36:44;3.90;;;2.43;;
6667;SDS011;3370;47.712;9.082;2023-07-13T13:39:22;2.50;;;2.17;;
6667;SDS011;3370;47.712;9.082;2023-07-13T13:41:58;2.20;;;2.10;;
6667;SDS011;3370;47.712;9.082;2023-07-13T13:44:24;3.90;;;2.37;;
6667;SDS011;3370;47.712;9.082;2023-07-13T13:46:51;8.97;;;1.90;;
6667;SDS011;3370;47.712;9.082;2023-07-13T13:49:23;2.13;;;1.93;;
6667;SDS011;3370;47.712;9.082;2023-07-13T13:51:51;5.87;;;2.43;;
6667;SDS011;3370;47.712;9.082;2023-07-13T13:54:19;3.37;;;2.13;;
6667;SDS011;3370;47.712;9.082;2023-07-13T13:56:48;4.17;;;2.30;;
6667;SDS011;3370;47.712;9.082;2023-07-13T13:59:15;2.70;;;2.17;;
6667;SDS011;3370;47.712;9.082;2023-07-13T14:01:42;3.60;;;2.30;;
6667;SDS011;3370;47.712;9.082;2023-07-13T14:04:17;3.50;;;2.10;;
6667;SDS011;3370;47.712;9.082;2023-07-13T14:06:45;4.37;;;2.47;;
6667;SDS011;3370;47.712;9.082;2023-07-13T14:09:14;2.93;;;1.97;;
6667;SDS011;3370;47.712;9.082;2023-07-13T14:11:43;3.53;;;2.63;;
6667;SDS011;3370;47.712;9.082;2023-07-13T14:14:31;3.27;;;2.43;;
6667;SDS011;3370;47.712;9.082;2023-07-13T14:16:57;7.70;;;2.37;;
6667;SDS011;3370;47.712;9.082;2023-07-13T14:19:23;2.77;;;2.53;;
6667;SDS011;3370;47.712;9.082;2023-07-13T14:21:49;2.87;;;2.13;;
6667;SDS011;3370;47.712;9.082;2023-07-13T14:24:17;2.77;;;2.30;;
6667;SDS011;3370;47.712;9.082;2023-07-13T14:26:43;4.23;;;2.03;;
6667;SDS011;3370;47.712;9.082;2023-07-13T14:29:16;2.30;;;2.07;;
6667;SDS011;3370;47.712;9.082;2023-07-13T14:31:44;2.30;;;1.97;;
6667;SDS011;3370;47.712;9.082;2023-07-13T14:34:10;5.00;;;2.17;;
6667;SDS011;3370;47.712;9.082;2023-07-13T14:36:38;2.50;;;2.30;;
6667;SDS011;3370;47.712;9.082;2023-07-13T14:39:15;2.80;;;2.10;;
6667;SDS011;3370;47.712;9.082;2023-07-13T14:41:49;8.70;;;2.30;;
6667;SDS011;3370;47.712;9.082;2023-07-13T14:44:21;2.73;;;2.00;;
6667;SDS011;3370;47.712;9.082;2023-07-13T14:46:59;2.83;;;1.93;;
6667;SDS011;3370;47.712;9.082;2023-07-13T14:49:32;4.63;;;2.70;;
6667;SDS011;3370;47.712;9.082;2023-07-13T14:54:42;4.57;;;2.00;;
6667;SDS011;3370;47.712;9.082;2023-07-13T14:57:16;2.70;;;1.67;;
6667;SDS011;3370;47.712;9.082;2023-07-13T14:59:46;2.57;;;1.70;;
6667;SDS011;3370;47.712;9.082;2023-07-13T15:02:14;2.07;;;1.87;;
6667;SDS011;3370;47.712;9.082;2023-07-13T15:04:43;3.20;;;2.00;;
6667;SDS011;3370;47.712;9.082;2023-07-13T15:07:09;2.10;;;1.47;;
6667;SDS011;3370;47.712;9.082;2023-07-13T15:09:37;6.03;;;1.93;;
6667;SDS011;3370;47.712;9.082;2023-07-13T15:12:03;4.90;;;1.93;;
6667;SDS011;3370;47.712;9.082;2023-07-13T15:14:30;5.63;;;2.20;;
6667;SDS011;3370;47.712;9.082;2023-07-13T15:16:56;2.43;;;1.80;;
6667;SDS011;3370;47.712;9.082;2023-07-13T15:19:22;2.33;;;1.50;;
6667;SDS011;3370;47.712;9.082;2023-07-13T15:21:49;2.97;;;1.87;;
6667;SDS011;3370;47.712;9.082;2023-07-13T15:24:17;2.37;;;1.80;;
6667;SDS011;3370;47.712;9.082;2023-07-13T15:26:42;2.43;;;1.90;;
6667;SDS011;3370;47.712;9.082;2023-07-13T15:29:14;3.50;;;1.80;;
6667;SDS011;3370;47.712;9.082;2023-07-13T15:31:40;2.47;;;1.70;;
6667;SDS011;3370;47.712;9.082;2023-07-13T15:34:14;4.30;;;1.97;;
6667;SDS011;3370;47.712;9.082;2023-07-13T15:36:45;2.70;;;1.90;;
6667;SDS011;3370;47.712;9.082;2023-07-13T15:39:13;7.10;;;2.10;;
6667;SDS011;3370;47.712;9.082;2023-07-13T15:41:41;3.20;;;2.00;;
6667;SDS011;3370;47.712;9.082;2023-07-13T15:44:23;4.53;;;1.90;;
6667;SDS011;3370;47.712;9.082;2023-07-13T15:46:55;1.70;;;1.60;;
6667;SDS011;3370;47.712;9.082;2023-07-13T15:49:21;3.20;;;1.43;;
6667;SDS011;3370;47.712;9.082;2023-07-13T15:51:47;2.30;;;2.10;;
6667;SDS011;3370;47.712;9.082;2023-07-13T15:54:14;3.47;;;1.90;;
6667;SDS011;3370;47.712;9.082;2023-07-13T15:56:42;5.93;;;1.60;;
6667;SDS011;3370;47.712;9.082;2023-07-13T15:59:10;1.40;;;1.30;;
6667;SDS011;3370;47.712;9.082;2023-07-13T16:01:39;5.20;;;2.00;;
6667;SDS011;3370;47.712;9.082;2023-07-13T16:04:07;3.80;;;1.80;;
6667;SDS011;3370;47.712;9.082;2023-07-13T16:06:35;3.80;;;1.37;;
6667;SDS011;3370;47.712;9.082;2023-07-13T16:09:04;3.60;;;1.90;;
6667;SDS011;3370;47.712;9.082;2023-07-13T16:11:35;1.93;;;1.77;;
6667;SDS011;3370;47.712;9.082;2023-07-13T16:14:04;2.00;;;1.40;;
6667;SDS011;3370;47.712;9.082;2023-07-13T16:16:31;2.43;;;1.43;;
6667;SDS011;3370;47.712;9.082;2023-07-13T16:19:00;2.43;;;1.27;;